• Join FlightAware (Why Join?)
  • Login
  • US Flag 
07:00AM EST


 

Airport Tracker/Info


-or-


 

Live Flight TrackerFlight Track Log ✈ MRA688 ✈ 03-Mar-2012 ✈ KMYR - KARW

Flight Track Log - Related Links

Times and Time Zones

All times are in EST time to prevent confusion due to time zone crossing. See the MRA688 flight status page for this flight to view local times or setup timezone preferences in your user account.

Time Position Orientation Groundspeed Altitude Reporting Facility
EST Latitude Longitude Course Direction KTS MPH feet Rate Location/Type
09:10AM 33.6608 -78.9543 229° Southwest  Level FlightAware Approximate
09:11AM 33.6375 -78.9860 229° Southwest  Level FlightAware Approximate
09:12AM 33.6143 -79.0178 229° Southwest  Level FlightAware Approximate
09:13AM 33.5910 -79.0495 229° Southwest  Level FlightAware Approximate
09:14AM 33.5677 -79.0812 206° Southwest  Level FlightAware Approximate
09:15AM 33.5383 -79.0988 229° Southwest  Level FlightAware Approximate
09:16AM 33.5152 -79.1307 229° Southwest  Level FlightAware Approximate
09:17AM 33.4921 -79.1625 229° Southwest  Level FlightAware Approximate
09:18AM 33.4690 -79.1944 229° Southwest  Level FlightAware Approximate
09:19AM 33.4459 -79.2262 229° Southwest  Level FlightAware Approximate
09:20AM 33.4228 -79.2580 229° Southwest  Level FlightAware Approximate
09:21AM 33.3997 -79.2898 229° Southwest  Level FlightAware Approximate
09:22AM 33.3765 -79.3216 229° Southwest  Level FlightAware Approximate
09:23AM 33.3534 -79.3534 229° Southwest  Level FlightAware Approximate
09:24AM 33.3302 -79.3851 229° Southwest  Level FlightAware Approximate
09:25AM 33.3071 -79.4169 214° Southwest  Level FlightAware Approximate
09:26AM 33.2782 -79.4404 229° Southwest  Level FlightAware Approximate
09:27AM 33.2552 -79.4723 229° Southwest  Level FlightAware Approximate
09:28AM 33.2323 -79.5041 229° Southwest  Level FlightAware Approximate
09:29AM 33.2093 -79.5360 229° Southwest  Level FlightAware Approximate
09:30AM 33.1862 -79.5678 229° Southwest  Level FlightAware Approximate
09:31AM 33.1632 -79.5997 229° Southwest  Level FlightAware Approximate
09:32AM 33.1402 -79.6315 229° Southwest  Level FlightAware Approximate
09:33AM 33.1172 -79.6633 229° Southwest  Level FlightAware Approximate
09:34AM 33.0941 -79.6951 229° Southwest  Level FlightAware Approximate
09:35AM 33.0711 -79.7268 229° Southwest  Level FlightAware Approximate
09:36AM 33.0480 -79.7586 229° Southwest  Level FlightAware Approximate
09:37AM 33.0249 -79.7903 229° Southwest  Level FlightAware Approximate
09:38AM 33.0019 -79.8220 229° Southwest  Level FlightAware Approximate
09:39AM 32.9788 -79.8537 229° Southwest  Level FlightAware Approximate
09:40AM 32.9557 -79.8854 229° Southwest  Level FlightAware Approximate
09:41AM 32.9326 -79.9170 229° Southwest  Level FlightAware Approximate
09:42AM 32.9095 -79.9487 229° Southwest  Level FlightAware Approximate
09:43AM 32.8864 -79.9803 229° Southwest  Level FlightAware Approximate
09:44AM 32.8633 -80.0119 229° Southwest  Level FlightAware Approximate
09:45AM 32.8401 -80.0435 229° Southwest  Level FlightAware Approximate
09:46AM 32.8170 -80.0751 229° Southwest  Level FlightAware Approximate
09:47AM 32.7939 -80.1067 229° Southwest  Level FlightAware Approximate
09:48AM 32.7707 -80.1382 229° Southwest  Level FlightAware Approximate
09:49AM 32.7476 -80.1697 229° Southwest  Level FlightAware Approximate
09:50AM 32.7244 -80.2013 229° Southwest  Level FlightAware Approximate
09:51AM 32.7012 -80.2328 229° Southwest  Level FlightAware Approximate
09:52AM 32.6780 -80.2642 229° Southwest  Level FlightAware Approximate
09:53AM 32.6548 -80.2957 229° Southwest  Level FlightAware Approximate
09:54AM 32.6316 -80.3271 229° Southwest  Level FlightAware Approximate
09:55AM 32.6084 -80.3586 220° Southwest  Level FlightAware Approximate
09:56AM 32.5814 -80.3853 227° Southwest  Level FlightAware Approximate
09:57AM 32.5574 -80.4155 231° Southwest  Level FlightAware Approximate
09:58AM 32.5354 -80.4481 238° Southwest  Level FlightAware Approximate
09:59AM 32.5166 -80.4834 225° Southwest  Level FlightAware Approximate
10:00AM 32.4916 -80.5125 232° Southwest  Level FlightAware Approximate
10:01AM 32.4698 -80.5453 227° Southwest  Level FlightAware Approximate
10:02AM 32.4459 -80.5759 236° Southwest  Level FlightAware Approximate
10:03AM 32.4260 -80.6104 217° Southwest  Level Estimated
10:04AM 32.4000 -80.6333 356° North  Level FlightAware Approximate
10:05AM 32.4351 -80.6363 176° South  Level Estimated
10:06AM 32.4000 -80.6333 356° North  Level FlightAware Approximate
10:07AM 32.4351 -80.6363 356° North  Level Estimated